Columbus Municipal Airport Columbus US
ICAO: KOLU
IATA: OLU
Category: Medium
Scheduled Services: No

Elevation: 1447 ft
TransAlt. 18000 ft.

Airport Communications:
AWOS 3:125.525
MINNEAPOLIS CNTR:128.75
CTAF/UNICOM:123.05
RDO:122.2

KOLU Zoom In..

If Map Doesn't Load, Click Here

Runways:

(A) RW 02 length 4135 ft width 150 ft
LOC 109.10 / hdg 22

(B) RW 14 length 6801 ft width 100 ft
LOC 109.10 / hdg 142

(C) RW 20 length 4135 ft width 150 ft
LOC 109.10 / hdg 202

(D) RW 32 length 6801 ft width 100 ft
LOC 109.10 / hdg 322

Location; KOLU
Day. 21 / Time. 14.56 Zulu
* Altimeter: 30.22
* Temperature: 14° c. 57.2°f.
* Wind from: 340° Speed 21 kn with Gusts up to 28 kn.
Dewpoint: 07° c.
Visibility: 10 Statute Miles.
Clouds: Clear (automated report).

KOLU 211456Z AUTO 34021G28KT 10SM CLR 14/07 A3022 RMK AO2 PK WND 32028/1449 SLP234 T01440067 51023


Wind From 340°
Speed 21 kn.

 
 
jpsmedia.com for Web Design worldairports.se 2018   terms of use